createdAt,value
2023-04-09T00:00:47.772Z,675.00
2023-04-09T00:01:47.823Z,670.00
2023-04-09T00:02:47.880Z,672.00
2023-04-09T00:03:47.989Z,670.00
2023-04-09T00:04:47.993Z,668.00
2023-04-09T00:05:47.927Z,667.00
2023-04-09T00:06:47.968Z,671.00
2023-04-09T00:07:48.001Z,664.00
2023-04-09T00:08:48.051Z,671.00
2023-04-09T00:09:48.111Z,667.00
2023-04-09T00:10:48.182Z,688.00
2023-04-09T00:11:48.279Z,673.00
2023-04-09T00:12:48.298Z,672.00
2023-04-09T00:13:48.362Z,687.00
2023-04-09T00:14:48.425Z,671.00
2023-04-09T00:15:48.491Z,676.00
2023-04-09T00:16:48.576Z,669.00
2023-04-09T00:17:48.665Z,672.00
2023-04-09T00:18:48.695Z,669.00
2023-04-09T00:19:48.745Z,675.00
2023-04-09T00:20:48.809Z,674.00
2023-04-09T00:21:48.869Z,684.00
2023-04-09T00:22:48.932Z,696.00
2023-04-09T00:23:48.999Z,695.00
2023-04-09T00:24:49.054Z,682.00
2023-04-09T00:25:49.129Z,684.00
2023-04-09T00:26:49.198Z,681.00
2023-04-09T00:27:49.240Z,696.00
2023-04-09T00:28:49.569Z,694.00
2023-04-09T00:29:49.369Z,685.00
2023-04-09T00:30:49.429Z,687.00
2023-04-09T00:31:49.529Z,693.00
2023-04-09T00:32:49.603Z,681.00
2023-04-09T00:33:49.623Z,684.00
2023-04-09T00:34:49.704Z,689.00
2023-04-09T00:35:49.772Z,687.00
2023-04-09T00:36:49.827Z,691.00
2023-04-09T00:37:49.868Z,688.00
2023-04-09T00:38:50.186Z,680.00
2023-04-09T00:39:50.001Z,682.00
2023-04-09T00:40:50.064Z,678.00
2023-04-09T00:41:50.131Z,691.00
2023-04-09T00:42:50.188Z,693.00
2023-04-09T00:43:50.250Z,681.00
2023-04-09T00:44:50.333Z,683.00
2023-04-09T00:45:50.433Z,678.00
2023-04-09T00:46:50.451Z,685.00
2023-04-09T00:47:50.558Z,683.00
2023-04-09T00:48:50.880Z,689.00
2023-04-09T00:49:50.652Z,685.00
2023-04-09T00:50:50.708Z,683.00
2023-04-09T00:51:50.780Z,684.00
2023-04-09T00:52:50.846Z,678.00
2023-04-09T00:53:50.916Z,692.00
2023-04-09T00:54:50.972Z,691.00
2023-04-09T00:55:51.032Z,694.00
2023-04-09T00:56:51.089Z,688.00
2023-04-09T00:57:51.164Z,684.00
2023-04-09T00:58:51.502Z,678.00
2023-04-09T00:59:51.299Z,696.00
2023-04-09T01:00:51.387Z,688.00
2023-04-09T01:01:51.473Z,700.00
2023-04-09T01:02:51.584Z,694.00
2023-04-09T01:03:51.586Z,680.00
2023-04-09T01:04:51.643Z,691.00
2023-04-09T01:05:51.703Z,692.00
2023-04-09T01:06:51.786Z,694.00
2023-04-09T01:07:51.841Z,701.00
2023-04-09T01:08:52.310Z,694.00
2023-04-09T01:09:51.974Z,693.00
2023-04-09T01:10:51.993Z,704.00
2023-04-09T01:11:52.058Z,697.00
2023-04-09T01:12:52.215Z,695.00
2023-04-09T01:13:52.191Z,694.00
2023-04-09T01:14:52.214Z,702.00
2023-04-09T01:15:52.270Z,705.00
2023-04-09T01:16:52.395Z,705.00
2023-04-09T01:17:52.433Z,708.00
2023-04-09T01:18:52.559Z,702.00
2023-04-09T01:19:52.522Z,707.00
2023-04-09T01:20:52.588Z,706.00
2023-04-09T01:21:52.650Z,696.00
2023-04-09T01:22:52.719Z,695.00
2023-04-09T01:23:52.778Z,681.00
2023-04-09T01:24:52.827Z,685.00
2023-04-09T01:25:52.890Z,684.00
2023-04-09T01:26:52.945Z,698.00
2023-04-09T01:27:53.014Z,689.00
2023-04-09T01:28:53.466Z,692.00
2023-04-09T01:29:53.157Z,689.00
2023-04-09T01:30:53.243Z,691.00
2023-04-09T01:31:53.266Z,701.00
2023-04-09T01:32:53.318Z,683.00
2023-04-09T01:33:53.331Z,678.00
2023-04-09T01:34:53.396Z,697.00
2023-04-09T01:35:53.433Z,697.00
2023-04-09T01:36:53.452Z,687.00
2023-04-09T01:37:53.497Z,702.00
2023-04-09T01:38:53.801Z,698.00
2023-04-09T01:39:53.620Z,689.00
2023-04-09T01:40:53.648Z,683.00
2023-04-09T01:41:53.694Z,681.00
2023-04-09T01:42:53.757Z,692.00
2023-04-09T01:43:53.848Z,682.00
2023-04-09T01:44:54.455Z,689.00
2023-04-09T01:45:53.965Z,691.00
2023-04-09T01:46:54.013Z,699.00
2023-04-09T01:47:54.147Z,691.00
2023-04-09T01:48:54.429Z,677.00
2023-04-09T01:49:54.224Z,691.00
2023-04-09T01:50:54.261Z,689.00
2023-04-09T01:51:54.325Z,694.00
2023-04-09T01:52:54.395Z,688.00
2023-04-09T01:53:54.453Z,688.00
2023-04-09T01:54:54.527Z,677.00
2023-04-09T01:55:54.597Z,686.00
2023-04-09T01:56:54.648Z,688.00
2023-04-09T01:57:54.702Z,695.00
2023-04-09T01:58:54.944Z,687.00
2023-04-09T01:59:54.826Z,690.00
2023-04-09T02:00:54.888Z,677.00
2023-04-09T02:01:55.195Z,698.00
2023-04-09T02:02:55.126Z,684.00
2023-04-09T02:03:55.211Z,682.00
2023-04-09T02:04:55.141Z,679.00
2023-04-09T02:05:55.221Z,690.00
2023-04-09T02:06:55.273Z,674.00
2023-04-09T02:07:55.333Z,690.00
2023-04-09T02:08:55.410Z,694.00
2023-04-09T02:09:55.453Z,682.00
2023-04-09T02:10:55.547Z,696.00
2023-04-09T02:11:55.556Z,694.00
2023-04-09T02:12:55.639Z,685.00
2023-04-09T02:13:55.686Z,677.00
2023-04-09T02:14:55.760Z,698.00
2023-04-09T02:15:55.843Z,696.00
2023-04-09T02:16:55.892Z,683.00
2023-04-09T02:17:55.978Z,690.00
2023-04-09T02:18:56.012Z,694.00
2023-04-09T02:19:56.074Z,698.00
2023-04-09T02:20:56.133Z,690.00
2023-04-09T02:21:56.212Z,681.00
2023-04-09T02:22:56.268Z,690.00
2023-04-09T02:23:56.322Z,698.00
2023-04-09T02:24:56.383Z,694.00
2023-04-09T02:25:56.449Z,686.00
2023-04-09T02:26:56.504Z,687.00
2023-04-09T02:27:56.570Z,682.00
2023-04-09T02:28:56.635Z,678.00
2023-04-09T02:29:56.702Z,676.00
2023-04-09T02:30:56.767Z,702.00
2023-04-09T02:31:57.122Z,680.00
2023-04-09T02:32:56.928Z,690.00
2023-04-09T02:33:56.953Z,674.00
2023-04-09T02:34:57.023Z,669.00
2023-04-09T02:35:57.148Z,678.00
2023-04-09T02:36:57.151Z,689.00
2023-04-09T02:37:57.220Z,680.00
2023-04-09T02:38:57.301Z,683.00
2023-04-09T02:39:57.332Z,678.00
2023-04-09T02:40:57.400Z,686.00
2023-04-09T02:41:57.461Z,686.00
2023-04-09T02:42:57.561Z,670.00
2023-04-09T02:43:57.602Z,689.00
2023-04-09T02:44:57.678Z,686.00
2023-04-09T02:45:57.776Z,678.00
2023-04-09T02:46:57.830Z,679.00
2023-04-09T02:47:57.869Z,687.00
2023-04-09T02:48:57.932Z,668.00
2023-04-09T02:49:57.993Z,666.00
2023-04-09T02:50:58.077Z,672.00
2023-04-09T02:51:58.128Z,681.00
2023-04-09T02:52:58.247Z,676.00
2023-04-09T02:53:58.258Z,666.00
2023-04-09T02:54:58.355Z,679.00
2023-04-09T02:55:58.402Z,674.00
2023-04-09T02:56:58.490Z,674.00
2023-04-09T02:57:58.545Z,667.00
2023-04-09T02:58:58.609Z,665.00
2023-04-09T02:59:59.633Z,681.00
2023-04-09T03:00:58.743Z,683.00
2023-04-09T03:01:58.924Z,679.00
2023-04-09T03:02:58.932Z,662.00
2023-04-09T03:03:58.995Z,674.00
2023-04-09T03:04:58.974Z,669.00
2023-04-09T03:05:59.065Z,668.00
2023-04-09T03:06:59.107Z,670.00
2023-04-09T03:07:59.157Z,663.00
2023-04-09T03:08:59.200Z,679.00
2023-04-09T03:09:59.233Z,684.00
2023-04-09T03:10:59.274Z,676.00
2023-04-09T03:11:59.314Z,677.00
2023-04-09T03:12:59.367Z,674.00
2023-04-09T03:13:59.393Z,671.00
2023-04-09T03:14:59.431Z,673.00
2023-04-09T03:15:59.587Z,675.00
2023-04-09T03:16:59.523Z,671.00
2023-04-09T03:17:59.649Z,665.00
2023-04-09T03:18:59.613Z,675.00
2023-04-09T03:19:59.640Z,673.00
2023-04-09T03:20:59.698Z,669.00
2023-04-09T03:21:59.742Z,676.00
2023-04-09T03:22:59.769Z,676.00
2023-04-09T03:23:59.799Z,670.00
2023-04-09T03:24:59.842Z,666.00
2023-04-09T03:25:59.881Z,672.00
2023-04-09T03:26:59.912Z,669.00
2023-04-09T03:27:59.956Z,686.00
2023-04-09T03:28:59.987Z,680.00
2023-04-09T03:30:00.041Z,672.00
2023-04-09T03:31:00.145Z,676.00
2023-04-09T03:32:00.126Z,666.00
2023-04-09T03:33:00.199Z,691.00
2023-04-09T03:34:00.202Z,672.00
2023-04-09T03:35:00.211Z,677.00
2023-04-09T03:36:00.312Z,666.00
2023-04-09T03:37:00.292Z,668.00
2023-04-09T03:38:00.335Z,663.00
2023-04-09T03:39:00.443Z,672.00
2023-04-09T03:40:00.389Z,663.00
2023-04-09T03:41:00.441Z,677.00
2023-04-09T03:42:00.476Z,663.00
2023-04-09T03:43:00.515Z,672.00
2023-04-09T03:44:00.550Z,665.00
2023-04-09T03:45:00.583Z,677.00
2023-04-09T03:46:00.627Z,666.00
2023-04-09T03:47:00.650Z,664.00
2023-04-09T03:48:00.780Z,688.00
2023-04-09T03:49:00.732Z,673.00
2023-04-09T03:50:00.766Z,668.00
2023-04-09T03:51:00.805Z,685.00
2023-04-09T03:52:00.838Z,665.00
2023-04-09T03:53:00.906Z,674.00
2023-04-09T03:54:00.931Z,668.00
2023-04-09T03:55:00.947Z,667.00
2023-04-09T03:56:00.985Z,668.00
2023-04-09T03:57:01.028Z,669.00
2023-04-09T03:58:01.059Z,670.00
2023-04-09T03:59:01.106Z,672.00
2023-04-09T04:00:01.235Z,669.00
2023-04-09T04:01:01.174Z,675.00
2023-04-09T04:02:01.250Z,673.00
2023-04-09T04:03:01.488Z,672.00
2023-04-09T04:04:01.373Z,677.00
2023-04-09T04:05:01.294Z,665.00
2023-04-09T04:06:01.322Z,667.00
2023-04-09T04:07:01.366Z,679.00
2023-04-09T04:08:01.441Z,672.00
2023-04-09T04:09:01.440Z,673.00
2023-04-09T04:10:01.515Z,666.00
2023-04-09T04:11:01.505Z,673.00
2023-04-09T04:12:01.575Z,674.00
2023-04-09T04:13:01.632Z,663.00
2023-04-09T04:14:01.639Z,676.00
2023-04-09T04:15:01.679Z,671.00
2023-04-09T04:16:01.782Z,674.00
2023-04-09T04:17:01.745Z,677.00
2023-04-09T04:18:01.796Z,670.00
2023-04-09T04:19:01.845Z,678.00
2023-04-09T04:20:01.889Z,674.00
2023-04-09T04:21:01.934Z,674.00
2023-04-09T04:22:01.996Z,685.00
2023-04-09T04:23:02.007Z,673.00
2023-04-09T04:24:02.048Z,688.00
2023-04-09T04:25:02.087Z,673.00
2023-04-09T04:26:02.136Z,691.00
2023-04-09T04:27:02.181Z,678.00
2023-04-09T04:28:02.218Z,684.00
2023-04-09T04:29:02.263Z,675.00
2023-04-09T04:30:02.370Z,678.00
2023-04-09T04:31:02.342Z,672.00
2023-04-09T04:32:02.460Z,693.00
2023-04-09T04:33:02.513Z,671.00
2023-04-09T04:34:02.475Z,677.00
2023-04-09T04:35:02.519Z,693.00
2023-04-09T04:36:02.597Z,679.00
2023-04-09T04:37:02.583Z,682.00
2023-04-09T04:38:02.620Z,678.00
2023-04-09T04:39:02.672Z,686.00
2023-04-09T04:40:02.711Z,677.00
2023-04-09T04:41:02.750Z,683.00
2023-04-09T04:42:02.794Z,680.00
2023-04-09T04:43:02.827Z,679.00
2023-04-09T04:44:02.874Z,672.00
2023-04-09T04:45:02.933Z,682.00
2023-04-09T04:46:03.100Z,667.00
2023-04-09T04:47:02.983Z,664.00
2023-04-09T04:48:03.073Z,666.00
2023-04-09T04:49:03.078Z,670.00
2023-04-09T04:50:03.112Z,681.00
2023-04-09T04:51:03.168Z,670.00
2023-04-09T04:52:03.221Z,676.00
2023-04-09T04:53:03.244Z,669.00
2023-04-09T04:54:03.271Z,666.00
2023-04-09T04:55:03.290Z,673.00
2023-04-09T04:56:03.334Z,669.00
2023-04-09T04:57:03.390Z,663.00
2023-04-09T04:58:03.435Z,674.00
2023-04-09T04:59:03.455Z,666.00
2023-04-09T05:00:03.492Z,664.00
2023-04-09T05:01:03.608Z,672.00
2023-04-09T05:02:03.602Z,679.00
2023-04-09T05:03:03.752Z,665.00
2023-04-09T05:04:03.685Z,665.00
2023-04-09T05:05:03.670Z,675.00
2023-04-09T05:06:03.717Z,668.00
2023-04-09T05:07:03.769Z,677.00
2023-04-09T05:08:03.837Z,668.00
2023-04-09T05:09:03.899Z,666.00
2023-04-09T05:10:03.977Z,663.00
2023-04-09T05:11:04.037Z,666.00
2023-04-09T05:12:04.078Z,669.00
2023-04-09T05:13:04.158Z,662.00
2023-04-09T05:14:04.197Z,667.00
2023-04-09T05:15:04.265Z,663.00
2023-04-09T05:16:04.323Z,668.00
2023-04-09T05:17:04.376Z,666.00
2023-04-09T05:18:04.429Z,670.00
2023-04-09T05:19:04.494Z,665.00
2023-04-09T05:20:04.552Z,669.00
2023-04-09T05:21:04.611Z,666.00
2023-04-09T05:22:04.662Z,665.00
2023-04-09T05:23:04.734Z,659.00
2023-04-09T05:24:04.788Z,670.00
2023-04-09T05:25:04.832Z,666.00
2023-04-09T05:26:04.922Z,661.00
2023-04-09T05:27:04.964Z,661.00
2023-04-09T05:28:05.012Z,672.00
2023-04-09T05:29:05.081Z,664.00
2023-04-09T05:30:05.155Z,665.00
2023-04-09T05:31:05.243Z,664.00
2023-04-09T05:32:05.252Z,663.00
2023-04-09T05:33:05.311Z,664.00
2023-04-09T05:34:05.362Z,665.00
2023-04-09T05:35:05.424Z,665.00
2023-04-09T05:36:05.512Z,665.00
2023-04-09T05:37:05.541Z,681.00
2023-04-09T05:38:05.599Z,668.00
2023-04-09T05:39:05.650Z,664.00
2023-04-09T05:40:05.730Z,663.00
2023-04-09T05:41:05.786Z,668.00
2023-04-09T05:42:05.832Z,665.00
2023-04-09T05:43:05.907Z,663.00
2023-04-09T05:44:05.950Z,666.00
2023-04-09T05:45:06.022Z,668.00
2023-04-09T05:46:06.092Z,665.00
2023-04-09T05:47:06.136Z,677.00
2023-04-09T05:48:06.191Z,678.00
2023-04-09T05:49:06.253Z,666.00
2023-04-09T05:50:06.324Z,665.00
2023-04-09T05:51:06.359Z,663.00
2023-04-09T05:52:06.412Z,663.00
2023-04-09T05:53:06.470Z,665.00
2023-04-09T05:54:06.531Z,670.00
2023-04-09T05:55:06.607Z,664.00
2023-04-09T05:56:06.650Z,665.00
2023-04-09T05:57:06.684Z,663.00
2023-04-09T05:58:06.753Z,664.00
2023-04-09T05:59:06.800Z,663.00
2023-04-09T06:00:06.864Z,662.00
2023-04-09T06:01:07.710Z,662.00
2023-04-09T06:02:07.040Z,666.00
2023-04-09T06:03:07.048Z,668.00
2023-04-09T06:04:07.267Z,664.00
2023-04-09T06:05:07.125Z,663.00
2023-04-09T06:06:07.179Z,662.00
2023-04-09T06:07:07.234Z,663.00
2023-04-09T06:08:07.280Z,662.00
2023-04-09T06:09:07.339Z,675.00
2023-04-09T06:10:07.393Z,660.00
2023-04-09T06:11:07.446Z,666.00
2023-04-09T06:12:07.512Z,661.00
2023-04-09T06:13:07.577Z,663.00
2023-04-09T06:14:07.623Z,664.00
2023-04-09T06:15:07.691Z,662.00
2023-04-09T06:16:07.759Z,666.00
2023-04-09T06:17:07.763Z,665.00
2023-04-09T06:18:07.904Z,663.00
2023-04-09T06:19:07.871Z,663.00
2023-04-09T06:20:07.960Z,662.00
2023-04-09T06:21:07.961Z,661.00
2023-04-09T06:22:08.027Z,665.00
2023-04-09T06:23:08.072Z,662.00
2023-04-09T06:24:08.122Z,664.00
2023-04-09T06:25:08.184Z,663.00
2023-04-09T06:26:08.222Z,663.00
2023-04-09T06:27:08.301Z,662.00
2023-04-09T06:28:08.328Z,661.00
2023-04-09T06:29:08.395Z,660.00
2023-04-09T06:30:08.415Z,657.00
2023-04-09T06:31:08.534Z,662.00
2023-04-09T06:32:08.518Z,659.00
2023-04-09T06:33:08.612Z,660.00
2023-04-09T06:34:08.607Z,664.00
2023-04-09T06:35:10.828Z,664.00
2023-04-09T06:36:08.776Z,662.00
2023-04-09T06:37:08.788Z,665.00
2023-04-09T06:38:08.807Z,664.00
2023-04-09T06:39:08.854Z,665.00
2023-04-09T06:40:08.918Z,660.00
2023-04-09T06:41:08.953Z,661.00
2023-04-09T06:42:08.992Z,663.00
2023-04-09T06:43:09.046Z,659.00
2023-04-09T06:44:09.086Z,662.00
2023-04-09T06:45:09.159Z,666.00
2023-04-09T06:46:09.319Z,661.00
2023-04-09T06:47:09.337Z,663.00
2023-04-09T06:48:09.320Z,661.00
2023-04-09T06:49:09.311Z,661.00
2023-04-09T06:50:09.374Z,661.00
2023-04-09T06:51:09.405Z,664.00
2023-04-09T06:52:10.403Z,664.00
2023-04-09T06:53:09.412Z,665.00
2023-04-09T06:54:09.398Z,662.00
2023-04-09T06:55:09.385Z,666.00
2023-04-09T06:56:09.447Z,661.00
2023-04-09T06:57:09.401Z,663.00
2023-04-09T06:58:09.391Z,662.00
2023-04-09T06:59:09.384Z,664.00
2023-04-09T07:00:09.398Z,662.00
2023-04-09T07:01:09.384Z,662.00
2023-04-09T07:02:09.499Z,667.00
2023-04-09T07:03:09.674Z,661.00
2023-04-09T07:04:09.468Z,657.00
2023-04-09T07:05:09.394Z,664.00
2023-04-09T07:06:09.432Z,664.00
2023-04-09T07:07:09.539Z,662.00
2023-04-09T07:08:09.517Z,662.00
2023-04-09T07:09:09.582Z,660.00
2023-04-09T07:10:09.613Z,661.00
2023-04-09T07:11:09.650Z,660.00
2023-04-09T07:12:09.686Z,661.00
2023-04-09T07:13:09.727Z,662.00
2023-04-09T07:14:09.788Z,662.00
2023-04-09T07:15:09.813Z,659.00
2023-04-09T07:16:09.882Z,659.00
2023-04-09T07:17:09.896Z,657.00
2023-04-09T07:18:09.933Z,659.00
2023-04-09T07:19:10.047Z,659.00
2023-04-09T07:20:10.006Z,660.00
2023-04-09T07:21:10.046Z,657.00
2023-04-09T07:22:10.082Z,658.00
2023-04-09T07:23:10.117Z,658.00
2023-04-09T07:24:10.162Z,658.00
2023-04-09T07:25:10.198Z,663.00
2023-04-09T07:26:10.253Z,660.00
2023-04-09T07:27:10.282Z,658.00
2023-04-09T07:28:10.325Z,658.00
2023-04-09T07:29:10.352Z,661.00
2023-04-09T07:30:10.409Z,654.00
2023-04-09T07:31:10.479Z,660.00
2023-04-09T07:32:10.550Z,654.00
2023-04-09T07:33:10.585Z,657.00
2023-04-09T07:34:10.827Z,655.00
2023-04-09T07:35:10.609Z,663.00
2023-04-09T07:36:10.674Z,657.00
2023-04-09T07:37:10.681Z,658.00
2023-04-09T07:38:10.720Z,659.00
2023-04-09T07:39:10.776Z,655.00
2023-04-09T07:40:10.813Z,658.00
2023-04-09T07:41:10.833Z,656.00
2023-04-09T07:42:10.877Z,658.00
2023-04-09T07:43:10.918Z,657.00
2023-04-09T07:44:10.965Z,657.00
2023-04-09T07:45:10.998Z,657.00
2023-04-09T07:46:11.069Z,655.00
2023-04-09T07:47:11.057Z,657.00
2023-04-09T07:48:11.093Z,659.00
2023-04-09T07:49:11.130Z,657.00
2023-04-09T07:50:11.166Z,656.00
2023-04-09T07:51:11.205Z,656.00
2023-04-09T07:52:11.230Z,654.00
2023-04-09T07:53:11.273Z,653.00
2023-04-09T07:54:11.316Z,656.00
2023-04-09T07:55:11.349Z,658.00
2023-04-09T07:56:11.383Z,656.00
2023-04-09T07:57:11.437Z,652.00
2023-04-09T07:58:11.443Z,657.00
2023-04-09T07:59:11.491Z,657.00
2023-04-09T08:00:11.519Z,658.00
2023-04-09T08:01:11.551Z,658.00
2023-04-09T08:02:14.360Z,653.00
2023-04-09T08:03:11.714Z,656.00
2023-04-09T08:04:11.685Z,655.00
2023-04-09T08:05:11.650Z,653.00
2023-04-09T08:06:11.578Z,654.00
2023-04-09T08:07:11.568Z,655.00
2023-04-09T08:08:11.575Z,657.00
2023-04-09T08:09:11.579Z,651.00
2023-04-09T08:10:11.573Z,654.00
2023-04-09T08:11:11.591Z,656.00
2023-04-09T08:12:11.554Z,653.00
2023-04-09T08:13:12.051Z,654.00
2023-04-09T08:14:11.558Z,654.00
2023-04-09T08:15:11.555Z,656.00
2023-04-09T08:16:11.598Z,652.00
2023-04-09T08:17:11.562Z,656.00
2023-04-09T08:18:11.555Z,654.00
2023-04-09T08:19:11.554Z,654.00
2023-04-09T08:20:11.560Z,657.00
2023-04-09T08:21:11.546Z,656.00
2023-04-09T08:22:11.559Z,655.00
2023-04-09T08:23:11.539Z,654.00
2023-04-09T08:24:11.565Z,653.00
2023-04-09T08:25:11.547Z,651.00
2023-04-09T08:26:11.550Z,655.00
2023-04-09T08:27:11.539Z,655.00
2023-04-09T08:28:11.540Z,654.00
2023-04-09T08:29:11.550Z,655.00
2023-04-09T08:30:11.549Z,650.00
2023-04-09T08:31:11.539Z,655.00
2023-04-09T08:32:11.568Z,653.00
2023-04-09T08:33:11.549Z,652.00
2023-04-09T08:34:11.545Z,657.00
2023-04-09T08:35:11.566Z,657.00
2023-04-09T08:36:11.574Z,655.00
2023-04-09T08:37:11.525Z,654.00
2023-04-09T08:38:11.523Z,656.00
2023-04-09T08:39:11.531Z,656.00
2023-04-09T08:40:11.536Z,655.00
2023-04-09T08:41:12.981Z,653.00
2023-04-09T08:42:11.569Z,656.00
2023-04-09T08:43:11.578Z,656.00
2023-04-09T08:44:11.589Z,653.00
2023-04-09T08:45:11.602Z,653.00
2023-04-09T08:46:11.641Z,653.00
2023-04-09T08:47:11.664Z,656.00
2023-04-09T08:48:11.741Z,653.00
2023-04-09T08:49:11.650Z,657.00
2023-04-09T08:50:11.637Z,653.00
2023-04-09T08:51:11.644Z,653.00
2023-04-09T08:52:11.651Z,649.00
2023-04-09T08:53:12.177Z,651.00
2023-04-09T08:54:11.659Z,656.00
2023-04-09T08:55:11.702Z,652.00
2023-04-09T08:56:11.666Z,652.00
2023-04-09T08:57:11.669Z,652.00
2023-04-09T08:58:11.665Z,649.00
2023-04-09T08:59:11.701Z,649.00
2023-04-09T09:00:11.666Z,652.00
2023-04-09T09:01:12.445Z,649.00
2023-04-09T09:02:12.292Z,649.00
2023-04-09T09:03:11.791Z,649.00
2023-04-09T09:04:11.705Z,646.00
2023-04-09T09:05:11.674Z,652.00
2023-04-09T09:06:11.689Z,651.00
2023-04-09T09:07:11.680Z,651.00
2023-04-09T09:08:11.661Z,648.00
2023-04-09T09:09:11.685Z,648.00
2023-04-09T09:10:11.704Z,649.00
2023-04-09T09:11:11.686Z,651.00
2023-04-09T09:12:11.662Z,654.00
2023-04-09T09:13:11.655Z,653.00
2023-04-09T09:14:11.698Z,653.00
2023-04-09T09:15:11.773Z,650.00
2023-04-09T09:16:11.780Z,651.00
2023-04-09T09:17:11.762Z,652.00
2023-04-09T09:18:11.704Z,651.00
2023-04-09T09:19:11.721Z,652.00
2023-04-09T09:20:11.734Z,651.00
2023-04-09T09:21:11.750Z,655.00
2023-04-09T09:22:11.727Z,653.00
2023-04-09T09:23:11.746Z,655.00
2023-04-09T09:24:11.755Z,651.00
2023-04-09T09:25:11.767Z,652.00
2023-04-09T09:26:11.757Z,655.00
2023-04-09T09:27:11.747Z,655.00
2023-04-09T09:28:11.742Z,657.00
2023-04-09T09:29:11.730Z,653.00
2023-04-09T09:30:11.740Z,651.00
2023-04-09T09:31:11.796Z,652.00
2023-04-09T09:32:11.724Z,651.00
2023-04-09T09:33:11.732Z,656.00
2023-04-09T09:34:11.726Z,650.00
2023-04-09T09:35:11.715Z,656.00
2023-04-09T09:36:11.782Z,652.00
2023-04-09T09:37:11.705Z,650.00
2023-04-09T09:38:11.701Z,653.00
2023-04-09T09:39:11.723Z,656.00
2023-04-09T09:40:11.734Z,653.00
2023-04-09T09:41:11.731Z,649.00
2023-04-09T09:42:11.817Z,652.00
2023-04-09T09:43:13.452Z,654.00
2023-04-09T09:44:11.771Z,652.00
2023-04-09T09:45:11.764Z,654.00
2023-04-09T09:46:11.808Z,656.00
2023-04-09T09:47:11.756Z,651.00
2023-04-09T09:48:11.802Z,648.00
2023-04-09T09:49:11.740Z,651.00
2023-04-09T09:50:11.725Z,650.00
2023-04-09T09:51:11.726Z,647.00
2023-04-09T09:52:11.729Z,653.00
2023-04-09T09:53:11.701Z,647.00
2023-04-09T09:54:11.696Z,650.00
2023-04-09T09:55:11.708Z,654.00
2023-04-09T09:56:11.693Z,652.00
2023-04-09T09:57:11.690Z,649.00
2023-04-09T09:58:11.664Z,650.00
2023-04-09T09:59:11.668Z,648.00
2023-04-09T10:00:11.660Z,648.00
2023-04-09T10:01:11.692Z,646.00
2023-04-09T10:02:11.737Z,649.00
2023-04-09T10:03:11.656Z,645.00
2023-04-09T10:04:11.663Z,648.00
2023-04-09T10:05:11.630Z,644.00
2023-04-09T10:06:11.615Z,647.00
2023-04-09T10:07:11.612Z,647.00
2023-04-09T10:08:11.604Z,647.00
2023-04-09T10:09:11.602Z,646.00
2023-04-09T10:10:11.607Z,644.00
2023-04-09T10:11:11.594Z,645.00
2023-04-09T10:12:11.579Z,644.00
2023-04-09T10:13:11.615Z,648.00
2023-04-09T10:14:11.575Z,647.00
2023-04-09T10:15:11.568Z,646.00
2023-04-09T10:16:11.611Z,645.00
2023-04-09T10:17:11.562Z,645.00
2023-04-09T10:18:11.533Z,642.00
2023-04-09T10:19:11.507Z,642.00
2023-04-09T10:20:11.502Z,645.00
2023-04-09T10:21:11.522Z,642.00
2023-04-09T10:22:11.513Z,644.00
2023-04-09T10:23:11.481Z,644.00
2023-04-09T10:24:11.484Z,643.00
2023-04-09T10:25:11.490Z,647.00
2023-04-09T10:26:11.460Z,644.00
2023-04-09T10:27:12.559Z,646.00
2023-04-09T10:28:11.467Z,647.00
2023-04-09T10:29:11.482Z,647.00
2023-04-09T10:30:11.455Z,647.00
2023-04-09T10:31:11.496Z,644.00
2023-04-09T10:32:11.432Z,645.00
2023-04-09T10:33:11.438Z,651.00
2023-04-09T10:34:11.400Z,645.00
2023-04-09T10:35:11.413Z,646.00
2023-04-09T10:36:11.429Z,647.00
2023-04-09T10:37:11.400Z,641.00
2023-04-09T10:38:11.402Z,649.00
2023-04-09T10:39:11.382Z,647.00
2023-04-09T10:40:11.387Z,648.00
2023-04-09T10:41:11.377Z,648.00
2023-04-09T10:42:11.375Z,648.00
2023-04-09T10:43:11.366Z,647.00
2023-04-09T10:44:11.362Z,645.00
2023-04-09T10:45:11.346Z,648.00
2023-04-09T10:46:11.396Z,649.00
2023-04-09T10:47:11.352Z,650.00
2023-04-09T10:48:11.345Z,652.00
2023-04-09T10:49:11.333Z,650.00
2023-04-09T10:50:11.340Z,647.00
2023-04-09T10:51:11.330Z,645.00
2023-04-09T10:52:12.299Z,650.00
2023-04-09T10:53:11.323Z,652.00
2023-04-09T10:54:11.368Z,649.00
2023-04-09T10:55:11.309Z,652.00
2023-04-09T10:56:11.297Z,649.00
2023-04-09T10:57:11.300Z,650.00
2023-04-09T10:58:13.227Z,649.00
2023-04-09T10:59:11.810Z,653.00
2023-04-09T11:00:11.477Z,653.00
2023-04-09T11:01:11.482Z,652.00
2023-04-09T11:02:11.569Z,650.00
2023-04-09T11:03:11.645Z,651.00
2023-04-09T11:04:11.694Z,649.00
2023-04-09T11:05:11.625Z,651.00
2023-04-09T11:06:11.677Z,653.00
2023-04-09T11:07:11.688Z,652.00
2023-04-09T11:08:11.719Z,654.00
2023-04-09T11:09:11.767Z,652.00
2023-04-09T11:10:11.808Z,648.00
2023-04-09T11:11:11.851Z,651.00
2023-04-09T11:12:11.888Z,652.00
2023-04-09T11:13:11.900Z,648.00
2023-04-09T11:14:11.915Z,650.00
2023-04-09T11:15:11.913Z,650.00
2023-04-09T11:16:11.979Z,653.00
2023-04-09T11:17:12.909Z,653.00
2023-04-09T11:18:11.907Z,654.00
2023-04-09T11:19:11.937Z,654.00
2023-04-09T11:20:11.908Z,654.00
2023-04-09T11:21:11.909Z,657.00
2023-04-09T11:22:11.885Z,656.00
2023-04-09T11:23:11.874Z,657.00
2023-04-09T11:24:11.870Z,654.00
2023-04-09T11:25:11.863Z,658.00
2023-04-09T11:26:11.859Z,655.00
2023-04-09T11:27:11.842Z,653.00
2023-04-09T11:28:11.826Z,649.00
2023-04-09T11:29:11.817Z,655.00
2023-04-09T11:30:11.821Z,654.00
2023-04-09T11:31:11.827Z,657.00
2023-04-09T11:32:11.813Z,655.00
2023-04-09T11:33:11.791Z,658.00
2023-04-09T11:34:11.820Z,657.00
2023-04-09T11:35:11.823Z,655.00
2023-04-09T11:36:11.861Z,655.00
2023-04-09T11:37:11.849Z,654.00
2023-04-09T11:38:11.844Z,660.00
2023-04-09T11:39:11.852Z,655.00
2023-04-09T11:40:11.877Z,657.00
2023-04-09T11:41:11.888Z,655.00
2023-04-09T11:42:11.918Z,653.00
2023-04-09T11:43:11.998Z,655.00
2023-04-09T11:44:11.949Z,654.00
2023-04-09T11:45:11.977Z,653.00
2023-04-09T11:46:11.965Z,657.00
2023-04-09T11:47:11.968Z,656.00
2023-04-09T11:48:11.949Z,659.00
2023-04-09T11:49:12.815Z,659.00
2023-04-09T11:50:11.995Z,655.00
2023-04-09T11:51:11.989Z,653.00
2023-04-09T11:52:12.023Z,658.00
2023-04-09T11:53:12.011Z,653.00
2023-04-09T11:54:12.019Z,659.00
2023-04-09T11:55:12.117Z,660.00
2023-04-09T11:56:12.070Z,661.00
2023-04-09T11:57:12.084Z,656.00
2023-04-09T11:58:12.095Z,660.00
2023-04-09T11:59:12.105Z,662.00
2023-04-09T12:00:12.137Z,658.00
2023-04-09T12:01:12.158Z,662.00
2023-04-09T12:02:12.273Z,660.00
2023-04-09T12:03:12.575Z,658.00
2023-04-09T12:04:12.258Z,661.00
2023-04-09T12:05:12.292Z,659.00
2023-04-09T12:06:12.209Z,658.00
2023-04-09T12:07:12.219Z,657.00
2023-04-09T12:08:12.221Z,660.00
2023-04-09T12:09:12.236Z,656.00
2023-04-09T12:10:12.231Z,657.00
2023-04-09T12:11:12.255Z,660.00
2023-04-09T12:12:12.261Z,658.00
2023-04-09T12:13:12.245Z,656.00
2023-04-09T12:14:12.266Z,657.00
2023-04-09T12:15:12.280Z,656.00
2023-04-09T12:16:12.398Z,652.00
2023-04-09T12:17:12.273Z,658.00
2023-04-09T12:18:12.275Z,654.00
2023-04-09T12:19:12.267Z,657.00
2023-04-09T12:20:12.291Z,658.00
2023-04-09T12:21:12.317Z,658.00
2023-04-09T12:22:12.321Z,654.00
2023-04-09T12:23:12.333Z,655.00
2023-04-09T12:24:12.402Z,656.00
2023-04-09T12:25:12.351Z,652.00
2023-04-09T12:26:12.360Z,656.00
2023-04-09T12:27:12.353Z,656.00
2023-04-09T12:28:12.361Z,655.00
2023-04-09T12:29:12.360Z,657.00